Weather at Pista da Barragem do Maranhão

Public forecast

Using degrees Celsius for public forecast. Weather courtesy of forecast.io.

Closest aviation weather report (METAR) to Pista da Barragem do Maranhão

Report is more than 6 hours old.

Closest report is Tancos Airbase, 33.7 nm (62.4 km) NNW. Retrieved 2009/08/31 14:00 UTC (11 years ago):

LPTN 311400Z /////KT CAVOK 35/19 Q1011 RMK ESTMD WND 28005KT

Closest aviation forecast (TAF) to Pista da Barragem do Maranhão

Forecast is more than 12 hours old.

Closest forecast is Alverca Air Base, 49.1 nm (90.9 km) W. Retrieved 2020/09/15 09:00 UTC (1 month ago):

TAF LPAR 150807Z 1509/1518 VRB02KT 9999 SCT030 BECMG 1511/1514 26010KT CAVOK